Time;durP1;ratioP1;P1;durP2;ratioP2;P2;SDS_P1;SDS_P2;PMS_P1;PMS_P2;Temp;Humidity;BMP_temperature;BMP_pressure;BME280_temperature;BME280_humidity;BME280_pressure;Samples;Min_cycle;Max_cycle;Signal;HPM_P1;HPM_P2
2022/06/02 03:03:04;;;;;;;0.70;0.50;;;17.50;57.80;;;;;;4937519;29;20464;-70
2022/06/02 03:05:40;;;;;;;0.70;0.60;;;17.50;57.80;;;;;;4938190;29;20842;-71
2022/06/02 03:08:15;;;;;;;0.67;0.50;;;17.50;57.70;;;;;;4938243;29;20431;-71
2022/06/02 03:10:45;;;;;;;0.67;0.50;;;17.40;57.80;;;;;;4937984;29;20495;-71
2022/06/02 03:13:24;;;;;;;0.80;0.63;;;17.40;58.10;;;;;;4937814;29;20440;-71
2022/06/02 03:15:56;;;;;;;0.70;0.50;;;17.40;58.00;;;;;;4992587;23;20490;-70
2022/06/02 03:18:45;;;;;;;0.70;0.70;;;17.40;57.70;;;;;;4976453;28;20446;-70
2022/06/02 03:21:18;;;;;;;0.70;0.50;;;17.40;58.10;;;;;;4976060;28;20555;-70
2022/06/02 03:24:21;;;;;;;0.70;0.60;;;17.40;58.00;;;;;;4975753;28;20890;-70
2022/06/02 03:27:03;;;;;;;0.70;0.60;;;17.40;58.10;;;;;;4956618;29;20494;-70
2022/06/02 03:29:46;;;;;;;0.70;0.60;;;17.40;58.20;;;;;;4956552;29;20490;-70
2022/06/02 03:32:20;;;;;;;0.80;0.50;;;17.40;58.10;;;;;;4956607;29;20487;-69
2022/06/02 03:35:00;;;;;;;0.70;0.53;;;17.30;58.30;;;;;;4956460;29;20462;-70
2022/06/02 03:37:40;;;;;;;0.70;0.63;;;17.30;58.10;;;;;;4956410;29;20439;-69
2022/06/02 03:40:22;;;;;;;0.70;0.60;;;17.30;58.00;;;;;;4956459;29;20498;-70
2022/06/02 03:42:58;;;;;;;0.70;0.60;;;17.30;58.30;;;;;;4956091;29;20442;-70
2022/06/02 03:45:37;;;;;;;0.70;0.60;;;17.30;58.20;;;;;;4956253;29;20470;-70
2022/06/02 03:48:22;;;;;;;0.63;0.50;;;17.30;58.30;;;;;;4956268;29;20497;-70
2022/06/02 03:51:03;;;;;;;0.70;0.50;;;17.40;58.20;;;;;;4956113;29;20506;-70
2022/06/02 03:53:48;;;;;;;0.70;0.57;;;17.40;58.30;;;;;;4956103;29;20536;-70
2022/06/02 03:56:29;;;;;;;0.70;0.60;;;17.40;57.90;;;;;;4956054;29;20525;-70
2022/06/02 03:59:10;;;;;;;0.70;0.60;;;17.50;58.00;;;;;;4956075;29;20506;-70
2022/06/02 04:01:40;;;;;;;0.70;0.60;;;17.50;57.70;;;;;;4955987;29;20474;-70
2022/06/02 04:04:21;;;;;;;0.60;0.50;;;17.50;57.80;;;;;;4955522;29;20455;-70
2022/06/02 04:07:03;;;;;;;0.63;0.50;;;17.50;57.70;;;;;;4955091;28;20843;-70
2022/06/02 04:09:46;;;;;;;0.87;0.60;;;17.50;57.40;;;;;;4955874;29;20439;-70
2022/06/02 04:15:45;;;;;;;0.70;0.50;;;17.50;57.40;;;;;;4955392;29;20562;-70
2022/06/02 04:18:19;;;;;;;0.70;0.60;;;17.50;57.20;;;;;;4955754;29;20482;-70
2022/06/02 04:20:58;;;;;;;0.67;0.50;;;17.50;57.50;;;;;;4955614;29;20430;-70
2022/06/02 04:23:46;;;;;;;0.60;0.50;;;17.50;57.20;;;;;;4955321;29;20878;-70
2022/06/02 04:26:45;;;;;;;0.70;0.60;;;17.50;57.70;;;;;;4955229;29;20829;-70
2022/06/02 04:29:23;;;;;;;0.80;0.80;;;17.50;57.30;;;;;;4952590;29;21026;-70
2022/06/02 04:32:04;;;;;;;0.70;0.60;;;17.50;57.30;;;;;;4955438;29;20881;-70
2022/06/02 04:34:36;;;;;;;1.00;0.60;;;17.60;57.20;;;;;;4955362;29;20504;-70
2022/06/02 04:37:10;;;;;;;0.67;0.57;;;17.60;57.30;;;;;;4955416;29;20443;-70
2022/06/02 04:39:48;;;;;;;0.70;0.60;;;17.60;57.20;;;;;;4955343;29;20427;-69
2022/06/02 04:42:25;;;;;;;0.70;0.60;;;17.60;57.30;;;;;;4956069;29;20446;-70
2022/06/02 04:45:01;;;;;;;0.70;0.50;;;17.50;57.90;;;;;;4955225;29;20526;-70
2022/06/02 04:47:39;;;;;;;0.70;0.53;;;17.60;57.70;;;;;;4955250;29;20434;-69
2022/06/02 04:50:15;;;;;;;0.70;0.60;;;17.80;57.80;;;;;;4955650;29;20454;-69
2022/06/02 04:52:49;;;;;;;0.90;0.60;;;17.90;57.60;;;;;;4954952;29;20965;-70
2022/06/02 04:55:23;;;;;;;0.70;0.60;;;17.90;57.60;;;;;;4955063;29;20536;-70
2022/06/02 04:57:56;;;;;;;0.70;0.60;;;18.00;57.00;;;;;;4955121;29;20434;-70
2022/06/02 05:00:30;;;;;;;0.70;0.60;;;17.90;57.30;;;;;;4954895;29;20849;-70
2022/06/02 05:03:04;;;;;;;0.80;0.70;;;17.90;57.40;;;;;;4954809;29;20891;-70
2022/06/02 05:05:38;;;;;;;0.80;0.50;;;18.00;57.30;;;;;;4954735;29;20521;-70
2022/06/02 05:08:29;;;;;;;0.90;0.70;;;18.10;57.10;;;;;;4955071;29;20534;-70
2022/06/02 05:11:08;;;;;;;0.70;0.60;;;18.20;56.70;;;;;;4954620;29;21040;-69
2022/06/02 05:13:44;;;;;;;0.70;0.60;;;18.10;56.50;;;;;;4955002;28;20439;-70
2022/06/02 05:16:17;;;;;;;0.70;0.60;;;18.30;57.50;;;;;;4954609;28;20568;-70
2022/06/02 05:19:09;;;;;;;0.70;0.60;;;18.20;57.10;;;;;;4957861;28;20460;-70
2022/06/02 05:22:04;;;;;;;0.70;0.60;;;18.10;57.20;;;;;;4958856;29;20489;-70
2022/06/02 05:24:55;;;;;;;0.70;0.50;;;17.90;57.00;;;;;;4958757;29;20507;-70
2022/06/02 05:27:41;;;;;;;0.70;0.60;;;17.90;57.50;;;;;;4956898;28;20462;-69
2022/06/02 05:30:37;;;;;;;0.67;0.53;;;18.00;57.00;;;;;;4958666;29;20518;-70
2022/06/02 05:33:28;;;;;;;0.70;0.60;;;18.10;57.00;;;;;;4936890;28;20443;-70
2022/06/02 05:36:17;;;;;;;0.60;0.53;;;18.30;56.60;;;;;;4940806;28;20486;-71
2022/06/02 05:39:02;;;;;;;0.60;0.50;;;18.40;56.00;;;;;;4959793;29;20439;-70
2022/06/02 05:41:46;;;;;;;0.60;0.50;;;18.40;56.10;;;;;;4960599;29;20431;-70
2022/06/02 05:44:25;;;;;;;0.90;0.60;;;18.20;56.40;;;;;;4960714;29;20470;-69
2022/06/02 05:47:09;;;;;;;0.70;0.60;;;18.40;56.00;;;;;;4960826;29;20439;-70
2022/06/02 05:49:44;;;;;;;0.63;0.50;;;18.20;56.20;;;;;;4960744;29;20529;-71
2022/06/02 05:52:22;;;;;;;1.00;0.60;;;18.20;56.50;;;;;;4959164;29;20474;-71
2022/06/02 05:55:08;;;;;;;0.90;0.60;;;18.40;55.90;;;;;;4959035;29;20478;-70
2022/06/02 05:57:38;;;;;;;0.70;0.60;;;18.00;55.90;;;;;;4958406;29;20554;-70
2022/06/02 06:00:15;;;;;;;0.67;0.60;;;18.00;56.50;;;;;;4958119;29;20537;-70
2022/06/02 06:03:09;;;;;;;0.70;0.60;;;18.10;56.40;;;;;;4957959;28;20422;-70
2022/06/02 06:05:42;;;;;;;0.70;0.50;;;18.10;55.20;;;;;;4957570;29;20897;-70
2022/06/02 06:08:33;;;;;;;0.60;0.50;;;18.20;55.40;;;;;;4958062;29;20438;-70
2022/06/02 06:11:12;;;;;;;0.70;0.60;;;18.30;56.20;;;;;;4957993;29;20467;-70
2022/06/02 06:14:11;;;;;;;0.60;0.50;;;18.80;55.70;;;;;;4958579;29;20865;-70
2022/06/02 06:16:44;;;;;;;0.80;0.60;;;19.10;54.90;;;;;;4955422;28;20517;-69
2022/06/02 06:19:31;;;;;;;0.70;0.60;;;19.30;55.10;;;;;;4958411;29;20486;-70
2022/06/02 06:22:11;;;;;;;0.80;0.70;;;19.10;53.90;;;;;;4957897;29;20442;-70
2022/06/02 06:25:00;;;;;;;0.70;0.67;;;18.90;53.90;;;;;;4957398;28;21049;-69
2022/06/02 06:27:33;;;;;;;1.00;0.60;;;18.70;53.90;;;;;;4957757;29;20458;-69
2022/06/02 06:30:08;;;;;;;0.60;0.50;;;18.60;55.10;;;;;;4956867;28;20994;-70
2022/06/02 06:32:52;;;;;;;0.70;0.60;;;18.50;54.70;;;;;;4957586;28;20474;-70
2022/06/02 06:35:31;;;;;;;0.70;0.60;;;18.50;54.90;;;;;;4957231;29;21053;-69
2022/06/02 06:38:27;;;;;;;0.70;0.60;;;18.40;54.70;;;;;;4957189;29;20490;-70
2022/06/02 06:41:12;;;;;;;0.80;0.70;;;18.60;55.10;;;;;;4958092;29;20506;-69
2022/06/02 06:43:53;;;;;;;0.70;0.60;;;19.00;54.70;;;;;;4956411;28;20465;-70
2022/06/02 06:46:25;;;;;;;1.23;0.70;;;19.50;54.00;;;;;;4957308;29;20435;-71
2022/06/02 06:48:59;;;;;;;0.70;0.60;;;19.50;53.30;;;;;;4957099;29;20490;-71
2022/06/02 06:51:39;;;;;;;0.70;0.70;;;19.80;53.70;;;;;;4956926;29;20522;-70
2022/06/02 06:54:13;;;;;;;0.80;0.60;;;19.90;53.50;;;;;;4957044;29;20526;-70
2022/06/02 06:56:49;;;;;;;0.80;0.60;;;19.80;53.00;;;;;;4957113;29;20525;-70
2022/06/02 06:59:41;;;;;;;0.80;0.60;;;19.70;53.20;;;;;;4956788;29;20906;-70
2022/06/02 07:02:17;;;;;;;0.60;0.50;;;19.10;53.90;;;;;;4956953;29;20835;-70
2022/06/02 07:04:54;;;;;;;0.70;0.63;;;19.10;55.80;;;;;;4957019;29;20473;-71
2022/06/02 07:07:26;;;;;;;0.90;0.60;;;19.30;54.90;;;;;;4956727;29;20910;-71
2022/06/02 07:09:59;;;;;;;1.43;0.70;;;19.70;53.80;;;;;;4956840;29;20435;-71
2022/06/02 07:12:51;;;;;;;0.70;0.50;;;20.10;54.50;;;;;;4957314;29;20475;-70
2022/06/02 07:15:26;;;;;;;0.60;0.50;;;20.20;52.90;;;;;;4956462;29;20558;-70
2022/06/02 07:18:02;;;;;;;0.70;0.60;;;20.00;53.90;;;;;;4956689;29;20538;-70
2022/06/02 07:20:37;;;;;;;0.70;0.60;;;19.40;53.10;;;;;;4956635;29;20435;-71
2022/06/02 07:23:12;;;;;;;0.70;0.60;;;19.50;54.10;;;;;;4956398;29;20902;-69
2022/06/02 07:25:54;;;;;;;0.70;0.60;;;19.60;53.70;;;;;;4957255;29;20478;-70
2022/06/02 07:28:31;;;;;;;0.70;0.60;;;19.50;54.10;;;;;;4957028;29;20505;-70
2022/06/02 07:31:14;;;;;;;0.70;0.60;;;19.50;53.80;;;;;;4956524;29;20438;-70
2022/06/02 07:33:53;;;;;;;0.77;0.57;;;19.70;55.50;;;;;;4956608;28;20431;-71
2022/06/02 07:36:53;;;;;;;0.67;0.60;;;19.80;53.50;;;;;;4956620;29;20518;-71
2022/06/02 07:39:58;;;;;;;0.70;0.60;;;19.70;54.80;;;;;;4956423;28;20486;-71
2022/06/02 07:42:52;;;;;;;0.70;0.60;;;19.90;54.10;;;;;;4956809;29;20797;-71
2022/06/02 07:45:32;;;;;;;0.70;0.70;;;20.20;54.60;;;;;;4956454;29;20474;-71
2022/06/02 07:48:38;;;;;;;0.70;0.60;;;20.40;53.10;;;;;;4956409;29;20482;-70
2022/06/02 07:51:17;;;;;;;0.67;0.50;;;20.50;52.80;;;;;;4950632;28;20467;-71
2022/06/02 07:54:01;;;;;;;0.70;0.60;;;20.50;53.20;;;;;;4956634;29;20431;-71
2022/06/02 07:56:37;;;;;;;0.70;0.60;;;20.40;53.10;;;;;;4956317;29;20443;-70
2022/06/02 07:59:16;;;;;;;0.90;0.70;;;20.40;52.50;;;;;;4956223;29;20866;-71
2022/06/02 08:02:02;;;;;;;0.70;0.60;;;20.40;52.00;;;;;;4956153;29;20486;-70
2022/06/02 08:04:38;;;;;;;0.60;0.60;;;20.60;53.20;;;;;;4956080;29;20470;-71
2022/06/02 08:07:10;;;;;;;0.70;0.60;;;20.60;52.60;;;;;;4956092;29;20435;-71
2022/06/02 08:09:50;;;;;;;0.70;0.50;;;20.70;53.70;;;;;;4956055;29;20439;-71
2022/06/02 08:12:26;;;;;;;0.90;0.60;;;21.00;51.90;;;;;;4955538;29;20978;-70
2022/06/02 08:15:02;;;;;;;0.67;0.50;;;21.00;52.40;;;;;;4955517;29;20490;-70
2022/06/02 08:17:36;;;;;;;0.70;0.53;;;21.30;53.00;;;;;;4955620;29;20846;-70
2022/06/02 08:20:17;;;;;;;0.70;0.60;;;21.20;50.60;;;;;;4955578;29;20907;-71
2022/06/02 08:22:56;;;;;;;0.60;0.50;;;20.90;51.10;;;;;;4955851;29;20494;-70
2022/06/02 08:25:27;;;;;;;0.80;0.70;;;21.10;51.40;;;;;;4955820;28;20479;-71
2022/06/02 08:28:12;;;;;;;0.70;0.50;;;21.20;50.80;;;;;;4955801;29;20435;-71
2022/06/02 08:30:46;;;;;;;0.70;0.60;;;21.20;50.20;;;;;;4953969;28;20467;-70
2022/06/02 08:33:38;;;;;;;0.70;0.50;;;20.90;51.40;;;;;;4955627;29;20470;-70
2022/06/02 08:36:13;;;;;;;0.70;0.60;;;20.90;53.60;;;;;;4955531;29;20473;-71
2022/06/02 08:38:57;;;;;;;0.70;0.60;;;20.90;51.10;;;;;;4955630;29;20427;-71
2022/06/02 08:42:03;;;;;;;0.70;0.60;;;20.90;50.50;;;;;;4955649;29;20850;-71
2022/06/02 08:44:56;;;;;;;0.70;0.50;;;20.80;52.40;;;;;;4955750;29;20871;-71
2022/06/02 08:48:10;;;;;;;0.70;0.53;;;20.80;52.30;;;;;;4956176;29;20435;-71
2022/06/02 08:51:01;;;;;;;0.60;0.50;;;21.10;51.30;;;;;;4955456;29;20458;-71
2022/06/02 08:54:13;;;;;;;0.70;0.60;;;21.40;51.90;;;;;;4955251;29;20475;-70
2022/06/02 08:57:07;;;;;;;0.60;0.50;;;21.50;51.10;;;;;;4955255;29;20462;-70
2022/06/02 09:00:19;;;;;;;0.70;0.60;;;21.60;50.80;;;;;;4955127;29;20438;-71
2022/06/02 09:03:16;;;;;;;0.70;0.60;;;21.70;49.90;;;;;;4955086;29;20530;-70
2022/06/02 09:06:29;;;;;;;0.70;0.60;;;22.10;49.20;;;;;;4954964;29;20466;-71
2022/06/02 09:09:37;;;;;;;0.70;0.57;;;22.30;48.60;;;;;;4955036;29;20537;-71
2022/06/02 09:12:23;;;;;;;0.70;0.60;;;22.10;48.50;;;;;;4954677;29;20834;-70
2022/06/02 09:15:24;;;;;;;0.70;0.60;;;21.80;48.90;;;;;;4983285;23;20486;-71
2022/06/02 09:18:10;;;;;;;0.70;0.60;;;21.60;49.00;;;;;;4974408;28;20832;-71
2022/06/02 09:20:47;;;;;;;0.70;0.60;;;21.60;49.50;;;;;;4974972;28;20516;-70
2022/06/02 09:23:37;;;;;;;0.70;0.60;;;21.40;50.50;;;;;;4974686;28;20481;-71
2022/06/02 09:26:19;;;;;;;0.90;0.60;;;21.50;53.10;;;;;;4974608;28;20481;-71
2022/06/02 09:29:08;;;;;;;0.70;0.60;;;22.00;51.90;;;;;;4974580;28;20488;-70
2022/06/02 09:31:56;;;;;;;0.70;0.60;;;22.10;51.30;;;;;;4974614;28;20434;-71
2022/06/02 09:34:42;;;;;;;0.70;0.60;;;22.50;50.20;;;;;;4972258;28;20509;-71
2022/06/02 09:37:42;;;;;;;0.90;0.70;;;22.90;48.40;;;;;;4974479;28;20434;-71
2022/06/02 09:40:24;;;;;;;0.60;0.50;;;22.70;48.70;;;;;;4974123;28;20430;-71
2022/06/02 09:43:22;;;;;;;0.70;0.50;;;22.70;49.50;;;;;;4975202;28;20488;-71
2022/06/02 09:46:07;;;;;;;0.60;0.50;;;22.90;50.20;;;;;;4970727;28;20513;-71
2022/06/02 09:48:49;;;;;;;0.70;0.57;;;22.90;48.50;;;;;;4974045;28;20950;-71
2022/06/02 09:51:29;;;;;;;0.70;0.60;;;23.40;50.80;;;;;;4974277;28;20496;-71
2022/06/02 09:54:30;;;;;;;0.70;0.50;;;23.30;48.10;;;;;;4974230;28;20561;-71
2022/06/02 10:00:22;;;;;;;0.70;0.60;;;23.60;47.90;;;;;;4973981;28;20461;-70
2022/06/02 10:03:12;;;;;;;0.70;0.50;;;23.50;48.60;;;;;;4974139;28;20493;-71
2022/06/02 10:05:52;;;;;;;0.67;0.57;;;23.10;47.50;;;;;;4977681;28;20516;-71
2022/06/02 10:08:33;;;;;;;0.63;0.50;;;22.50;48.00;;;;;;4977769;28;20438;-71
2022/06/02 10:11:25;;;;;;;0.70;0.50;;;22.70;51.20;;;;;;4977449;28;20948;-71
2022/06/02 10:14:24;;;;;;;0.67;0.60;;;22.50;49.50;;;;;;4977636;28;20466;-71
2022/06/02 10:17:32;;;;;;;0.70;0.50;;;22.20;49.60;;;;;;4977692;28;20493;-71
2022/06/02 10:20:35;;;;;;;0.70;0.60;;;22.30;51.80;;;;;;4964214;28;20460;-71
2022/06/02 10:23:16;;;;;;;0.70;0.50;;;22.80;51.70;;;;;;4977439;28;20528;-71
2022/06/02 10:26:21;;;;;;;0.60;0.50;;;23.00;49.10;;;;;;4977432;28;20481;-71
2022/06/02 10:29:26;;;;;;;0.70;0.50;;;23.00;48.90;;;;;;4936685;29;20490;-70
2022/06/02 10:32:23;;;;;;;0.70;0.60;;;23.20;48.50;;;;;;4976998;28;20500;-71
2022/06/02 10:35:24;;;;;;;0.70;0.60;;;23.70;49.10;;;;;;4977221;28;20470;-71
2022/06/02 10:38:05;;;;;;;0.60;0.50;;;23.70;47.10;;;;;;4979046;28;20456;-71
2022/06/02 10:41:06;;;;;;;0.60;0.50;;;23.30;46.20;;;;;;4980512;28;20441;-70
2022/06/02 10:44:11;;;;;;;0.60;0.50;;;23.20;47.50;;;;;;4989954;28;20900;-71
2022/06/02 10:47:24;;;;;;;0.60;0.50;;;22.90;48.20;;;;;;4990421;28;20466;-71
2022/06/02 10:50:01;;;;;;;0.70;0.70;;;23.20;47.70;;;;;;4989462;28;20452;-71
2022/06/02 10:53:01;;;;;;;0.70;0.60;;;23.70;48.70;;;;;;4990838;28;20481;-71
2022/06/02 10:56:08;;;;;;;1.00;0.60;;;24.20;47.80;;;;;;4990569;28;20466;-72
2022/06/02 10:59:19;;;;;;;0.80;0.70;;;24.50;47.80;;;;;;4980294;28;20783;-72
2022/06/02 11:02:28;;;;;;;0.70;0.57;;;24.10;48.70;;;;;;4977945;28;20462;-72
2022/06/02 11:05:41;;;;;;;0.70;0.60;;;24.00;47.50;;;;;;4978185;28;20486;-72
2022/06/02 11:08:56;;;;;;;0.60;0.50;;;23.80;48.20;;;;;;4978939;28;20458;-72
2022/06/02 11:11:54;;;;;;;0.60;0.50;;;24.00;48.10;;;;;;4978538;28;20442;-72
2022/06/02 11:14:43;;;;;;;0.63;0.50;;;24.30;46.90;;;;;;4977954;28;20477;-71
2022/06/02 11:17:49;;;;;;;0.70;0.50;;;24.70;47.90;;;;;;4979333;28;20501;-72
2022/06/02 11:21:03;;;;;;;0.60;0.50;;;24.90;46.80;;;;;;4970025;28;20883;-72
2022/06/02 11:23:59;;;;;;;0.70;0.50;;;25.00;45.80;;;;;;4978972;28;20438;-72
2022/06/02 11:26:52;;;;;;;0.70;0.60;;;25.20;45.10;;;;;;4978499;28;20473;-73
2022/06/02 11:30:02;;;;;;;1.20;0.70;;;24.60;46.80;;;;;;4978502;28;20792;-72
2022/06/02 11:32:42;;;;;;;0.90;0.50;;;24.40;46.40;;;;;;4978742;28;20470;-73
2022/06/02 11:35:26;;;;;;;0.70;0.50;;;24.50;47.10;;;;;;4978238;28;20489;-72
2022/06/02 11:38:27;;;;;;;0.90;0.60;;;24.50;46.80;;;;;;4978736;28;20458;-73
2022/06/02 11:41:18;;;;;;;0.70;0.60;;;25.00;46.40;;;;;;4978623;28;20434;-72
2022/06/02 11:44:00;;;;;;;0.70;0.50;;;25.40;45.60;;;;;;4978091;28;20518;-72
2022/06/02 11:46:49;;;;;;;0.60;0.50;;;25.50;44.80;;;;;;4977619;28;20838;-72
2022/06/02 11:49:49;;;;;;;0.70;0.60;;;25.40;46.30;;;;;;4978083;28;20964;-72
2022/06/02 11:52:49;;;;;;;0.70;0.50;;;25.30;45.90;;;;;;4977453;28;20876;-72
2022/06/02 11:55:25;;;;;;;0.80;0.50;;;25.30;46.10;;;;;;4978146;28;20473;-74
2022/06/02 11:58:27;;;;;;;0.60;0.50;;;25.20;47.30;;;;;;4977831;28;20776;-72
2022/06/02 12:01:27;;;;;;;0.70;0.60;;;25.50;46.50;;;;;;4976777;28;20468;-71
2022/06/02 12:04:18;;;;;;;0.60;0.50;;;25.90;45.40;;;;;;4977669;28;20933;-71
2022/06/02 12:07:32;;;;;;;0.60;0.50;;;25.80;45.60;;;;;;4977482;28;20496;-71
2022/06/02 12:10:35;;;;;;;0.70;0.60;;;25.50;45.20;;;;;;4978229;28;20437;-73
2022/06/02 12:13:10;;;;;;;0.67;0.60;;;25.50;44.20;;;;;;4977307;28;20485;-72
2022/06/02 12:16:17;;;;;;;0.70;0.70;;;25.10;45.70;;;;;;4977474;28;20520;-72
2022/06/02 12:19:01;;;;;;;0.67;0.57;;;25.20;45.70;;;;;;4977314;28;20781;-72
2022/06/02 12:21:46;;;;;;;0.67;0.50;;;25.20;45.40;;;;;;4977336;28;20456;-73
2022/06/02 12:24:39;;;;;;;0.70;0.60;;;25.10;45.80;;;;;;4977200;28;20430;-72
2022/06/02 12:27:25;;;;;;;0.70;0.60;;;24.80;47.40;;;;;;4976721;28;20426;-73
2022/06/02 12:30:18;;;;;;;0.70;0.60;;;25.00;47.50;;;;;;4977665;28;20437;-72
2022/06/02 12:33:05;;;;;;;0.60;0.50;;;25.20;45.50;;;;;;4977349;28;20486;-72
2022/06/02 12:35:58;;;;;;;0.70;0.60;;;25.50;45.40;;;;;;4977280;28;20478;-72
2022/06/02 12:38:44;;;;;;;0.60;0.50;;;25.50;45.90;;;;;;4976841;28;20438;-72
2022/06/02 12:41:27;;;;;;;0.80;0.60;;;25.20;45.70;;;;;;4977788;28;20430;-72
2022/06/02 12:44:11;;;;;;;0.87;0.53;;;24.80;47.20;;;;;;4977338;28;20430;-74
2022/06/02 12:46:59;;;;;;;0.60;0.50;;;25.00;46.80;;;;;;4976915;28;20466;-72
2022/06/02 12:49:59;;;;;;;0.60;0.50;;;25.10;47.70;;;;;;4977750;28;20426;-72
2022/06/02 12:52:49;;;;;;;0.60;0.50;;;25.30;48.10;;;;;;4976906;28;20439;-74
2022/06/02 12:55:35;;;;;;;0.63;0.50;;;25.40;46.60;;;;;;4977141;28;20954;-72
2022/06/02 12:58:40;;;;;;;0.87;0.50;;;25.10;46.00;;;;;;4976605;28;20415;-72
2022/06/02 13:01:20;;;;;;;0.67;0.50;;;25.20;47.00;;;;;;4976222;28;20874;-72
2022/06/02 13:04:30;;;;;;;1.17;0.57;;;25.30;46.70;;;;;;4976849;28;20426;-72
2022/06/02 13:07:24;;;;;;;0.63;0.50;;;25.30;47.30;;;;;;4976863;28;20840;-73
2022/06/02 13:10:29;;;;;;;0.60;0.50;;;25.40;46.40;;;;;;4967932;28;20517;-72
2022/06/02 13:13:35;;;;;;;0.80;0.50;;;25.20;45.40;;;;;;4974556;28;20458;-72
2022/06/02 13:16:38;;;;;;;0.70;0.60;;;24.90;45.60;;;;;;4976319;28;20480;-73
2022/06/02 13:19:31;;;;;;;0.60;0.50;;;25.30;46.40;;;;;;4976635;28;20441;-72
2022/06/02 13:22:27;;;;;;;0.70;0.60;;;25.40;46.40;;;;;;4976863;28;20449;-73
2022/06/02 13:25:23;;;;;;;0.60;0.50;;;25.50;46.10;;;;;;4974271;28;20481;-74
2022/06/02 13:28:25;;;;;;;0.60;0.50;;;25.70;46.20;;;;;;4976550;28;20429;-72
2022/06/02 13:31:16;;;;;;;0.80;0.60;;;25.70;46.50;;;;;;4973330;28;20442;-72
2022/06/02 13:34:12;;;;;;;0.70;0.70;;;25.70;46.20;;;;;;4957216;28;20505;-72
2022/06/02 13:36:56;;;;;;;0.70;0.60;;;25.70;46.20;;;;;;4967061;28;20489;-72
2022/06/02 13:39:47;;;;;;;0.60;0.50;;;25.60;46.30;;;;;;4978715;28;20430;-72
2022/06/02 13:42:42;;;;;;;0.63;0.50;;;25.60;45.90;;;;;;4980599;28;20480;-72
2022/06/02 13:45:42;;;;;;;0.80;0.60;;;25.70;46.00;;;;;;4960277;28;20528;-72
2022/06/02 13:48:47;;;;;;;0.70;0.60;;;25.90;46.30;;;;;;4981001;28;20528;-73
2022/06/02 13:51:42;;;;;;;0.70;0.70;;;26.00;46.10;;;;;;4980132;28;20949;-72
2022/06/02 13:57:43;;;;;;;0.67;0.60;;;25.70;46.10;;;;;;4978085;28;20448;-72
2022/06/02 14:00:22;;;;;;;0.70;0.60;;;25.60;47.20;;;;;;4977982;28;20516;-71
2022/06/02 14:03:16;;;;;;;0.80;0.57;;;25.30;46.80;;;;;;4977797;28;20984;-72
2022/06/02 14:06:07;;;;;;;0.70;0.60;;;25.40;47.40;;;;;;4977923;28;20524;-71
2022/06/02 14:09:03;;;;;;;1.10;0.60;;;25.70;47.30;;;;;;4977495;28;20969;-72
2022/06/02 14:11:48;;;;;;;0.70;0.60;;;25.60;46.40;;;;;;4977606;28;20480;-72
2022/06/02 14:14:43;;;;;;;0.67;0.50;;;26.00;47.30;;;;;;4977719;28;20519;-72
2022/06/02 14:17:22;;;;;;;0.70;0.50;;;26.40;46.60;;;;;;4977734;28;20848;-72
2022/06/02 14:20:08;;;;;;;0.70;0.50;;;26.50;45.80;;;;;;4977342;28;20992;-72
2022/06/02 14:22:46;;;;;;;0.80;0.60;;;26.70;45.40;;;;;;4977269;28;20430;-72
2022/06/02 14:25:21;;;;;;;0.60;0.50;;;26.50;45.40;;;;;;4977476;28;20493;-71
2022/06/02 14:28:04;;;;;;;0.87;0.60;;;26.50;45.20;;;;;;4977496;28;20434;-72
2022/06/02 14:30:39;;;;;;;0.70;0.60;;;26.60;45.20;;;;;;4977452;28;20493;-71
2022/06/02 14:33:11;;;;;;;0.70;0.70;;;26.50;44.80;;;;;;4977748;28;20438;-72
2022/06/02 14:35:46;;;;;;;0.60;0.50;;;26.60;44.70;;;;;;4977234;28;20474;-72
2022/06/02 14:38:37;;;;;;;0.70;0.57;;;26.60;45.20;;;;;;4977240;28;20464;-72
2022/06/02 14:41:10;;;;;;;0.70;0.50;;;26.20;44.70;;;;;;4977196;28;20786;-72
2022/06/02 14:44:13;;;;;;;0.87;0.60;;;25.80;46.70;;;;;;4977057;28;20489;-72
2022/06/02 14:47:00;;;;;;;0.80;0.80;;;25.40;46.50;;;;;;4977028;28;20474;-72
2022/06/02 14:49:50;;;;;;;0.80;0.80;;;25.50;46.70;;;;;;4976734;28;20489;-72
2022/06/02 14:52:52;;;;;;;1.30;0.60;;;25.20;47.20;;;;;;4976998;28;20438;-71
2022/06/02 14:55:27;;;;;;;0.70;0.53;;;25.20;46.60;;;;;;4977646;28;20543;-71
2022/06/02 14:58:05;;;;;;;0.60;0.50;;;25.10;46.40;;;;;;4976947;28;20857;-72
2022/06/02 15:00:39;;;;;;;0.70;0.70;;;25.20;47.00;;;;;;4976889;28;20434;-72
2022/06/02 15:03:45;;;;;;;0.80;0.50;;;25.00;47.10;;;;;;4976459;28;20550;-72
2022/06/02 15:06:29;;;;;;;0.70;0.50;;;24.50;48.10;;;;;;4969673;28;20486;-72
2022/06/02 15:09:30;;;;;;;0.70;0.60;;;24.60;47.80;;;;;;4976684;28;20441;-72
2022/06/02 15:12:18;;;;;;;0.70;0.57;;;24.30;48.50;;;;;;4974512;28;20875;-72
2022/06/02 15:17:34;;;;;;;0.60;0.50;;;24.30;48.80;;;;;;4996755;23;21086;-70
2022/06/02 15:20:18;;;;;;;0.67;0.60;;;24.40;48.60;;;;;;4976156;28;20481;-71
2022/06/02 15:23:06;;;;;;;0.70;0.60;;;24.40;49.10;;;;;;4975992;28;20521;-71
2022/06/02 15:25:39;;;;;;;0.80;0.80;;;24.30;49.10;;;;;;4975947;28;20462;-71
2022/06/02 15:28:20;;;;;;;0.70;0.60;;;24.20;49.30;;;;;;4975995;28;20496;-71
2022/06/02 15:31:02;;;;;;;0.70;0.60;;;24.30;49.30;;;;;;4975801;28;20489;-71
2022/06/02 15:34:00;;;;;;;0.70;0.60;;;24.50;49.00;;;;;;4976279;28;20434;-70
2022/06/02 15:36:52;;;;;;;0.70;0.60;;;24.60;49.10;;;;;;4975690;28;20470;-70
2022/06/02 15:39:52;;;;;;;0.70;0.50;;;24.70;49.80;;;;;;4975873;28;20457;-70
2022/06/02 15:42:43;;;;;;;0.80;0.60;;;24.80;49.10;;;;;;4975846;28;20520;-71
2022/06/02 15:45:45;;;;;;;0.60;0.60;;;24.70;49.30;;;;;;4973360;28;21076;-71
2022/06/02 15:48:45;;;;;;;0.70;0.50;;;24.70;49.30;;;;;;4975681;28;20441;-71
2022/06/02 15:51:42;;;;;;;0.70;0.60;;;24.50;49.90;;;;;;4975191;28;20938;-71
2022/06/02 15:54:54;;;;;;;0.70;0.60;;;24.60;50.00;;;;;;4975624;28;20476;-71
2022/06/02 15:57:55;;;;;;;0.70;0.60;;;24.80;49.40;;;;;;4976122;28;20484;-71
2022/06/02 16:01:02;;;;;;;0.70;0.50;;;24.70;49.90;;;;;;4975596;28;20438;-71
2022/06/02 16:04:06;;;;;;;1.20;0.60;;;24.90;49.40;;;;;;4975175;28;20430;-71
2022/06/02 16:06:59;;;;;;;0.60;0.50;;;25.10;49.00;;;;;;4975598;28;20481;-71
2022/06/02 16:13:20;;;;;;;0.60;0.50;;;25.30;49.50;;;;;;4975240;28;20537;-70
2022/06/02 16:16:24;;;;;;;0.67;0.60;;;25.40;48.60;;;;;;4974937;28;20548;-71
2022/06/02 16:19:42;;;;;;;0.70;0.60;;;25.50;48.60;;;;;;4975152;28;20438;-70
2022/06/02 16:22:33;;;;;;;0.70;0.60;;;25.60;48.60;;;;;;4934506;29;20435;-70
2022/06/02 16:25:33;;;;;;;0.90;0.60;;;25.70;48.60;;;;;;4934421;29;20516;-71
2022/06/02 16:28:37;;;;;;;0.77;0.70;;;25.80;48.10;;;;;;4973166;28;20449;-70
2022/06/02 16:31:13;;;;;;;0.70;0.60;;;25.80;48.30;;;;;;4974908;28;20426;-71
2022/06/02 16:33:56;;;;;;;0.63;0.50;;;25.90;48.20;;;;;;4974584;28;20437;-70
2022/06/02 16:36:48;;;;;;;0.60;0.50;;;25.40;48.50;;;;;;4974362;28;20876;-71
2022/06/02 16:39:30;;;;;;;0.70;0.60;;;25.20;49.30;;;;;;4973104;28;20852;-71
2022/06/02 16:42:13;;;;;;;0.60;0.50;;;25.40;49.40;;;;;;4974656;28;20438;-71
2022/06/02 16:45:40;;;;;;;0.80;0.70;;;25.30;49.20;;;;;;4974642;28;20430;-71
2022/06/02 16:48:44;;;;;;;0.80;0.60;;;25.20;49.00;;;;;;4900986;29;20504;-71
2022/06/02 16:51:50;;;;;;;0.70;0.60;;;25.50;48.10;;;;;;4933994;29;20515;-70
2022/06/02 16:54:50;;;;;;;0.70;0.50;;;25.70;48.30;;;;;;4974613;28;20541;-70
2022/06/02 16:57:35;;;;;;;0.80;0.70;;;25.60;48.60;;;;;;4975126;28;20937;-71
2022/06/02 17:00:13;;;;;;;0.90;0.63;;;25.80;48.10;;;;;;4975103;28;20438;-71
2022/06/02 17:02:57;;;;;;;0.60;0.50;;;25.70;48.20;;;;;;4975440;28;20521;-71
2022/06/02 17:05:55;;;;;;;0.60;0.50;;;25.80;48.40;;;;;;4975454;28;20476;-71
2022/06/02 17:08:35;;;;;;;0.80;0.60;;;25.80;48.40;;;;;;4975759;28;20477;-71
2022/06/02 17:11:11;;;;;;;0.80;0.60;;;25.90;48.50;;;;;;4975365;28;20492;-72
2022/06/02 17:13:46;;;;;;;0.70;0.60;;;25.80;48.30;;;;;;4975407;28;20434;-71
2022/06/02 17:16:45;;;;;;;0.70;0.50;;;25.80;48.00;;;;;;4974881;28;20506;-71
2022/06/02 17:19:42;;;;;;;1.10;0.60;;;25.80;48.30;;;;;;4975144;28;20457;-71
2022/06/02 17:22:45;;;;;;;0.60;0.60;;;25.60;48.90;;;;;;4975183;28;20454;-72
2022/06/02 17:25:37;;;;;;;0.70;0.63;;;25.50;48.50;;;;;;4968430;28;20477;-71
2022/06/02 17:28:26;;;;;;;0.70;0.50;;;25.30;48.90;;;;;;4974873;28;20521;-71
2022/06/02 17:31:06;;;;;;;0.60;0.50;;;25.30;49.20;;;;;;4975184;28;20485;-72
2022/06/02 17:33:42;;;;;;;1.20;0.70;;;25.20;50.10;;;;;;4975037;28;20469;-71
2022/06/02 17:36:39;;;;;;;0.70;0.60;;;25.00;50.30;;;;;;4975074;28;20516;-71
2022/06/02 17:39:44;;;;;;;0.70;0.60;;;25.00;49.70;;;;;;4974675;28;20427;-71
2022/06/02 17:42:27;;;;;;;0.60;0.50;;;24.90;49.70;;;;;;4933955;29;20460;-71
2022/06/02 17:45:18;;;;;;;0.70;0.60;;;24.50;49.90;;;;;;4971949;28;20465;-71
2022/06/02 17:48:12;;;;;;;0.70;0.60;;;24.40;50.30;;;;;;4974529;28;20438;-71
2022/06/02 17:50:54;;;;;;;0.60;0.50;;;24.40;50.40;;;;;;4974416;28;20517;-72
2022/06/02 17:53:38;;;;;;;0.70;0.53;;;24.50;50.50;;;;;;4974987;28;20430;-72